x

Pensacola - 115nm Ese Of Pensacola, Fl (42039) Wave Buoy

5:50am - Thu 11th Feb 2016 All times are CST. -6 hours from GMT.

  • Sig Wave height 3.0ft
  • Swell Direction
  • Peak Period 7s
  • Average Period 4s
  • Wind
    13mph, 16mph gusts
  • Sea Temp 67°f
  • Air Temp 63°f
  • Sea Pressure 1025.3mb
  • Pensacola - 115nm Ese Of Pensacola, Fl
  • Pensacola - 115nm Ese Of Pensacola, Fl

More Historic Weather Station data

Upgrade to MSW Pro to gain access to the past 30 days of data for over 8000 Wavebouys and Weather Stations around the globe.

Join Pro

Comparision Forecast

View Surf forecast
   
Thu 02/11 5:50am 3ft 7s 4s 13 16 mph 1025.3mb 67f 63f
4:50am 3ft 3s 4s 16 20 mph 1024.6mb 68f 62f
3:50am 3ft 5s 4s 16 18 mph 1024.3mb 68f 61f
2:50am 3ft 5s 4s 16 20 mph 1023.9mb 68f 60f
1:50am 3ft 8s 4s 13 20 mph 1023.9mb 68f 60f
12:50am 3ft 6s 5s 13 16 mph 1024.1mb 67f 58f
Wed 02/10 11:50pm 3.5ft 8s 5s 13 18 mph 1024.5mb 68f 58f
10:50pm 4ft 6s 5s 11 16 mph 1025.3mb 68f 57f
9:50pm 4ft 6s 5s 11 16 mph 1025.5mb 68f 57f
8:50pm 4.5ft 5s 5s 13 18 mph 1025.5mb 68f 56f
7:50pm 4.5ft 6s 5s 16 22 mph 1025.8mb 68f 56f
6:50pm 5ft 8s 5s 18 22 mph 1025.6mb 69f 55f
5:50pm 5ft 5s 5s 18 22 mph 1025.4mb 69f 55f
4:50pm 5.5ft 6s 5s 18 25 mph 1025.2mb 69f 55f
3:50pm 6ft 6s 5s 18 22 mph 1025mb 69f 54f
2:50pm 5.5ft 6s 5s 20 25 mph 1024.9mb 69f 53f
1:50pm 6.5ft 8s 6s 16 22 mph 1024.9mb 69f 52f
12:50pm 6.5ft 8s 5s 18 22 mph 1025.4mb 69f 51f
11:50am 7ft 8s 6s 16 20 mph 1026mb 69f 51f
10:50am 7ft 8s 6s 20 25 mph 1026.7mb 69f 51f
9:50am 7.5ft 8s 6s 20 27 mph 1026.7mb 68f 51f
8:50am 8ft 8s 6s 20 27 mph 1026.1mb 68f 52f
7:50am 8ft 8s 6s 25 29 mph 1024.8mb 68f 53f
6:50am 8ft 8s 6s 25 29 mph 1023.3mb 68f 55f
5:50am 8ft 9s 6s 22 29 mph 1022.4mb 68f 57f
4:50am 8ft 8s 6s 25 31 mph 1021.5mb 68f 57f
3:50am 9ft 9s 6s 25 31 mph 1021mb 68f 57f
2:50am 10ft 8s 6s 25 31 mph 1020.8mb 68f 57f
1:50am 9ft 8s 6s 25 31 mph 1020.9mb 68f 57f
12:50am 9ft 9s 6s 22 29 mph 1021.1mb 68f 57f
Tue 02/09 11:50pm 9ft 8s 6s 29 36 mph 1020.4mb 68f 58f
10:50pm 8.5ft 9s 6s 27 38 mph 1020.2mb 68f 58f
9:50pm 10ft 8s 6s 29 36 mph 1019.9mb 68f 58f
8:50pm 10ft 8s 6s 29 34 mph 1019.5mb 69f 58f
7:50pm 10.5ft 8s 6s 29 38 mph 1018.9mb 69f 57f
6:50pm 10ft 8s 6s 29 36 mph 1018.1mb 69f 56f
5:50pm 10.5ft 8s 6s 29 36 mph 1017.3mb 70f 56f
4:50pm 11ft 9s 6s 27 31 mph 1016.9mb 70f 56f
3:50pm 11ft 9s 7s 27 36 mph 1016.6mb 70f 55f
2:50pm 10ft 9s 6s 29 36 mph 1016.4mb 70f 55f
1:50pm 11ft 9s 7s 29 38 mph 1016.1mb 70f 55f
12:50pm 11ft 9s 6s 31 38 mph 1016.9mb 70f 55f
11:50am 11ft 9s 6s 31 40 mph 1017.5mb 70f 56f
10:50am 10.5ft 9s 7s 31 38 mph 1018.1mb 70f 56f
9:50am 10ft 9s 6s 29 38 mph 1018.6mb 70f 57f
8:50am 11.5ft 9s 7s 29 36 mph 1018.4mb 69f 56f
7:50am 9.5ft 9s 6s 31 38 mph 1018mb 70f 56f
6:50am 12ft 9s 7s 27 36 mph 1017.8mb 70f 56f
5:50am 12ft 9s 7s 29 36 mph 1017.5mb 70f 56f
4:50am 11.5ft 9s 7s 29 36 mph 1017mb 69f 56f
3:50am 13ft 9s 7s 27 34 mph 1016.7mb 69f 56f
2:50am 14ft 9s 7s 29 36 mph 1016.5mb 69f 56f
1:50am 15ft 10s 7s 29 38 mph 1016.8mb 69f 56f
12:50am 14ft 9s 7s 34 43 mph 1017mb 69f 55f
Mon 02/08 11:50pm 13.5ft 9s 7s 36 47 mph 1016.6mb 69f 56f
10:50pm 14ft 9s 7s 34 45 mph 1016.1mb 69f 57f
9:50pm 15ft 9s 7s 34 43 mph 1015mb 68f 58f
8:50pm 14.5ft 9s 7s 31 38 mph 1014.4mb 69f 59f
7:50pm 15ft 8s 7s 36 43 mph 1014mb 69f 59f
6:50pm 12ft 8s 6s 34 43 mph 1013.4mb 69f 60f
5:50pm 11ft 8s 6s 34 43 mph 1012.4mb 69f 61f
4:50pm 10ft 8s 6s 36 43 mph 1012.2mb 69f 64f
3:50pm 9ft 7s 6s 31 40 mph 1012.1mb 69f 65f
2:50pm 8ft 7s 6s 34 40 mph 1012.4mb 69f 64f
1:50pm 7ft 7s 5s 29 36 mph 1013.6mb 69f 64f
12:50pm 6ft 7s 5s 27 34 mph 1014.7mb 69f 63f
11:50am 6ft 7s 5s 22 34 mph 1016.3mb 69f 62f
10:50am 6ft 7s 5s 25 29 mph 1018mb 69f 62f
9:50am 5.5ft 6s 5s 25 29 mph 1018.7mb 69f 62f
8:50am 5ft 6s 5s 22 27 mph 1018.9mb 69f 61f
7:50am 4.5ft 6s 5s 20 27 mph 1018.8mb 69f 61f
6:50am 4ft 5s 5s 20 25 mph 1018.5mb 69f 60f
5:50am 4ft 5s 4s 16 20 mph 1018.7mb 69f 60f
4:50am 4.5ft 5s 4s 18 22 mph 1018.5mb 69f 60f
3:50am 4.5ft 5s 4s 20 27 mph 1018.4mb 69f 60f
2:50am 4ft 5s 4s 20 25 mph 1018.2mb 68f 60f
1:50am 3.5ft 4s 4s 20 25 mph 1018.4mb 69f 60f
12:50am 3.5ft 4s 4s 20 25 mph 1018.9mb 70f 60f
Sun 02/07 11:50pm 3.5ft 4s 4s 20 25 mph 1019.6mb 70f 60f
10:50pm 3ft 4s 4s 20 25 mph 1020mb 70f 60f
9:50pm 2.5ft 5s 4s 18 22 mph 1020.4mb 69f 59f
8:50pm 2.5ft 5s 4s 18 22 mph 1020.6mb 69f 58f
7:50pm 2.5ft 5s 4s 16 20 mph 1020.3mb 69f 58f
6:50pm 3ft 5s 4s 13 18 mph 1020.1mb 69f 57f
5:50pm 3.5ft 6s 4s 13 16 mph 1019.9mb 69f 56f
4:50pm 4ft 6s 4s 13 18 mph 1019.9mb 69f 57f
3:50pm 5ft 6s 5s 16 22 mph 1019.6mb 69f 56f
2:50pm 5ft 6s 5s 18 25 mph 1019.6mb 69f 56f